Time,TemperatureF,DewpointF,PressureIn,WindDirection,WindDirectionDegrees,WindSpeedMPH,WindSpeedGustMPH,Humidity,HourlyPrecipIn,Conditions,Clouds,dailyrainin,SoftwareType,DateUTC
2013-03-11 00:02:00,42.6,41.5,30.39,North,-999,0.0,0.0,96,0.00,,,-99.99,FreeWX-Wi 1.01,2013-03-11 07:02:00,
2013-03-11 00:07:00,42.4,41.4,-100.00,North,-999,0.0,0.0,96,0.00,,,-99.99,FreeWX-Wi 1.01,2013-03-11 07:07:00,
2013-03-11 00:12:00,42.4,41.4,-100.00,North,-999,0.0,0.0,96,0.00,,,-99.99,FreeWX-Wi 1.01,2013-03-11 07:12:00,
2013-03-11 00:17:00,42.4,41.4,-100.00,North,-999,0.0,0.0,96,0.00,,,-99.99,FreeWX-Wi 1.01,2013-03-11 07:17:00,
2013-03-11 00:22:00,42.4,41.4,-100.00,North,-999,0.0,0.0,96,0.00,,,-99.99,FreeWX-Wi 1.01,2013-03-11 07:22:00,
2013-03-11 00:27:00,42.4,41.7,30.39,North,-999,0.0,0.0,97,0.00,,,-99.99,FreeWX-Wi 1.01,2013-03-11 07:27:00,
2013-03-11 00:47:00,42.3,41.5,30.41,North,-999,0.0,0.0,97,0.00,,,-99.99,FreeWX-Wi 1.01,2013-03-11 07:47:00,
2013-03-11 00:52:00,42.3,41.5,-100.00,North,-999,0.0,0.0,97,0.00,,,-99.99,FreeWX-Wi 1.01,2013-03-11 07:52:00,
2013-03-11 01:02:00,42.3,41.5,-100.00,North,-999,0.0,0.0,97,0.00,,,-99.99,FreeWX-Wi 1.01,2013-03-11 08:02:00,
2013-03-11 01:07:00,42.3,41.5,-100.00,North,-999,0.0,0.0,97,0.00,,,-99.99,FreeWX-Wi 1.01,2013-03-11 08:07:00,
2013-03-11 01:17:00,42.3,41.5,-100.00,North,-999,0.0,0.0,97,0.00,,,-99.99,FreeWX-Wi 1.01,2013-03-11 08:17:00,
2013-03-11 01:32:00,42.3,41.5,30.41,North,-999,0.0,2.2,97,0.00,,,-99.99,FreeWX-Wi 1.01,2013-03-11 08:32:00,
2013-03-11 01:37:00,42.3,41.5,-100.00,North,-999,0.0,0.0,97,0.00,,,-99.99,FreeWX-Wi 1.01,2013-03-11 08:37:00,
2013-03-11 01:47:00,42.1,41.4,-100.00,North,-999,0.0,2.2,97,0.00,,,-99.99,FreeWX-Wi 1.01,2013-03-11 08:47:00,
2013-03-11 01:57:00,42.1,41.4,30.44,North,-999,0.0,0.0,97,0.00,,,-99.99,FreeWX-Wi 1.01,2013-03-11 08:57:00,
2013-03-11 02:12:00,42.1,41.5,-100.00,North,-999,0.0,0.0,98,0.00,,,-99.99,FreeWX-Wi 1.01,2013-03-11 09:12:00,
2013-03-11 02:17:00,42.1,41.5,-100.00,North,-999,0.0,0.0,98,0.00,,,-99.99,FreeWX-Wi 1.01,2013-03-11 09:17:00,
2013-03-11 02:22:00,42.1,41.5,30.44,North,-999,0.0,0.0,98,0.00,,,-99.99,FreeWX-Wi 1.01,2013-03-11 09:22:00,
2013-03-11 02:27:00,42.1,41.5,30.44,North,-999,0.0,0.0,98,0.00,,,-99.99,FreeWX-Wi 1.01,2013-03-11 09:27:00,
2013-03-11 02:32:00,42.1,41.5,30.47,North,-999,0.0,0.0,98,0.00,,,-99.99,FreeWX-Wi 1.01,2013-03-11 09:32:00,
2013-03-11 02:42:00,41.9,41.4,30.47,North,-999,0.0,0.0,98,0.00,,,-99.99,FreeWX-Wi 1.01,2013-03-11 09:42:00,
2013-03-11 02:47:00,41.9,41.4,30.47,North,-999,0.0,0.0,98,0.00,,,-99.99,FreeWX-Wi 1.01,2013-03-11 09:47:00,
2013-03-11 02:52:00,41.9,41.4,30.47,North,-999,0.0,0.0,98,0.00,,,-99.99,FreeWX-Wi 1.01,2013-03-11 09:52:00,
2013-03-11 02:57:00,41.9,41.4,30.47,North,-999,0.0,0.0,98,0.00,,,-99.99,FreeWX-Wi 1.01,2013-03-11 09:57:00,
2013-03-11 03:02:00,41.9,41.4,30.47,North,-999,0.0,0.0,98,0.00,,,-99.99,FreeWX-Wi 1.01,2013-03-11 10:02:00,
2013-03-11 03:07:00,41.7,41.2,30.47,North,-999,0.0,0.0,98,0.00,,,-99.99,FreeWX-Wi 1.01,2013-03-11 10:07:00,
2013-03-11 03:12:00,41.7,41.2,30.47,North,-999,0.0,0.0,98,0.00,,,-99.99,FreeWX-Wi 1.01,2013-03-11 10:12:00,
2013-03-11 03:17:00,41.7,41.2,30.47,North,-999,0.0,0.0,98,0.00,,,-99.99,FreeWX-Wi 1.01,2013-03-11 10:17:00,
2013-03-11 03:22:00,41.7,41.2,30.47,North,-999,0.0,0.0,98,0.00,,,-99.99,FreeWX-Wi 1.01,2013-03-11 10:22:00,
2013-03-11 03:27:00,41.7,41.2,30.47,North,-999,0.0,0.0,98,0.00,,,-99.99,FreeWX-Wi 1.01,2013-03-11 10:27:00,
2013-03-11 03:32:00,41.7,41.2,30.47,North,-999,0.0,0.0,98,0.00,,,-99.99,FreeWX-Wi 1.01,2013-03-11 10:32:00,
2013-03-11 03:37:00,41.7,41.2,30.47,North,-999,0.0,0.0,98,0.00,,,-99.99,FreeWX-Wi 1.01,2013-03-11 10:37:00,
2013-03-11 03:42:00,41.7,41.2,30.50,North,-999,0.0,0.0,98,0.00,,,-99.99,FreeWX-Wi 1.01,2013-03-11 10:42:00,
2013-03-11 03:47:00,41.7,41.2,30.50,North,-999,0.0,0.0,98,0.00,,,-99.99,FreeWX-Wi 1.01,2013-03-11 10:47:00,
2013-03-11 03:52:00,41.7,41.2,30.50,North,-999,0.0,0.0,98,0.00,,,-99.99,FreeWX-Wi 1.01,2013-03-11 10:52:00,
2013-03-11 03:57:00,41.7,41.2,30.50,North,-999,0.0,0.0,98,0.00,,,-99.99,FreeWX-Wi 1.01,2013-03-11 10:57:00,
2013-03-11 04:02:00,41.7,41.2,-100.00,North,-999,0.0,0.0,98,0.00,,,-99.99,FreeWX-Wi 1.01,2013-03-11 11:02:00,
2013-03-11 04:07:00,41.7,41.2,30.50,North,-999,0.0,0.0,98,0.00,,,-99.99,FreeWX-Wi 1.01,2013-03-11 11:07:00,
2013-03-11 04:12:00,41.7,41.2,30.50,North,-999,0.0,0.0,98,0.00,,,-99.99,FreeWX-Wi 1.01,2013-03-11 11:12:00,
2013-03-11 04:17:00,41.7,41.2,30.50,North,-999,0.0,0.0,98,0.00,,,-99.99,FreeWX-Wi 1.01,2013-03-11 11:17:00,
2013-03-11 04:22:00,41.7,41.2,30.50,North,-999,0.0,0.0,98,0.00,,,-99.99,FreeWX-Wi 1.01,2013-03-11 11:22:00,
2013-03-11 04:27:00,41.5,41.0,30.50,North,-999,0.0,0.0,98,0.00,,,-99.99,FreeWX-Wi 1.01,2013-03-11 11:27:00,
2013-03-11 04:32:00,41.5,41.0,30.50,North,-999,0.0,0.0,98,0.00,,,-99.99,FreeWX-Wi 1.01,2013-03-11 11:32:00,
2013-03-11 04:37:00,41.5,41.0,30.50,North,-999,0.0,0.0,98,0.00,,,-99.99,FreeWX-Wi 1.01,2013-03-11 11:37:00,
2013-03-11 04:42:00,41.5,41.0,30.53,North,-999,0.0,0.0,98,0.00,,,-99.99,FreeWX-Wi 1.01,2013-03-11 11:42:00,
2013-03-11 04:47:00,41.4,40.8,30.53,North,-999,0.0,0.0,98,0.00,,,-99.99,FreeWX-Wi 1.01,2013-03-11 11:47:00,
2013-03-11 04:52:00,41.4,40.8,30.53,North,-999,0.0,0.0,98,0.00,,,-99.99,FreeWX-Wi 1.01,2013-03-11 11:52:00,
2013-03-11 04:57:00,41.2,40.6,30.50,North,-999,0.0,0.0,98,0.00,,,-99.99,FreeWX-Wi 1.01,2013-03-11 11:57:00,
2013-03-11 05:02:00,41.2,40.6,30.50,North,-999,0.0,0.0,98,0.00,,,-99.99,FreeWX-Wi 1.01,2013-03-11 12:02:00,
2013-03-11 05:07:00,41.4,40.8,30.50,North,-999,0.0,0.0,98,0.00,,,-99.99,FreeWX-Wi 1.01,2013-03-11 12:07:00,
2013-03-11 05:12:00,41.5,41.0,30.53,North,-999,0.0,0.0,98,0.00,,,-99.99,FreeWX-Wi 1.01,2013-03-11 12:12:00,
2013-03-11 05:17:00,41.5,41.0,30.53,North,-999,0.0,0.0,98,0.00,,,-99.99,FreeWX-Wi 1.01,2013-03-11 12:17:00,
2013-03-11 05:22:00,41.5,41.0,30.53,North,-999,0.0,0.0,98,0.00,,,-99.99,FreeWX-Wi 1.01,2013-03-11 12:22:00,
2013-03-11 05:27:00,41.4,40.8,30.53,North,-999,0.0,0.0,98,0.00,,,-99.99,FreeWX-Wi 1.01,2013-03-11 12:27:00,
2013-03-11 05:32:00,41.4,40.8,30.53,North,-999,0.0,0.0,98,0.00,,,-99.99,FreeWX-Wi 1.01,2013-03-11 12:32:00,
2013-03-11 05:37:00,41.2,40.6,30.53,North,-999,0.0,0.0,98,0.00,,,-99.99,FreeWX-Wi 1.01,2013-03-11 12:37:00,
2013-03-11 05:43:00,41.2,40.6,30.56,North,-999,0.0,0.0,98,0.00,,,-99.99,FreeWX-Wi 1.01,2013-03-11 12:43:00,
2013-03-11 05:48:00,41.2,40.6,30.56,North,-999,0.0,0.0,98,0.00,,,-99.99,FreeWX-Wi 1.01,2013-03-11 12:48:00,
2013-03-11 05:53:00,41.0,40.5,30.56,North,-999,0.0,0.0,98,0.00,,,-99.99,FreeWX-Wi 1.01,2013-03-11 12:53:00,
2013-03-11 05:58:00,41.0,40.5,30.56,North,-999,0.0,0.0,98,0.00,,,-99.99,FreeWX-Wi 1.01,2013-03-11 12:58:00,
2013-03-11 06:03:00,41.2,40.6,30.56,North,-999,0.0,0.0,98,0.00,,,-99.99,FreeWX-Wi 1.01,2013-03-11 13:03:00,
2013-03-11 06:08:00,41.2,40.6,30.56,North,-999,0.0,0.0,98,0.00,,,-99.99,FreeWX-Wi 1.01,2013-03-11 13:08:00,
2013-03-11 06:13:00,41.0,40.5,30.59,North,-999,0.0,0.0,98,0.00,,,-99.99,FreeWX-Wi 1.01,2013-03-11 13:13:00,
2013-03-11 06:18:00,40.8,40.3,30.59,North,-999,0.0,0.0,98,0.00,,,-99.99,FreeWX-Wi 1.01,2013-03-11 13:18:00,
2013-03-11 06:23:00,40.5,39.9,30.59,North,-999,0.0,0.0,98,0.00,,,-99.99,FreeWX-Wi 1.01,2013-03-11 13:23:00,
2013-03-11 06:28:00,40.3,39.7,30.50,North,-999,0.0,0.0,98,0.00,,,-99.99,FreeWX-Wi 1.01,2013-03-11 13:28:00,
2013-03-11 06:33:00,39.9,39.4,30.50,North,-999,0.0,0.0,98,0.00,,,-99.99,FreeWX-Wi 1.01,2013-03-11 13:33:00,
2013-03-11 06:38:00,39.7,39.2,30.50,North,-999,0.0,0.0,98,0.00,,,-99.99,FreeWX-Wi 1.01,2013-03-11 13:38:00,
2013-03-11 06:43:00,39.7,39.2,30.44,North,-999,0.0,0.0,98,0.00,,,-99.99,FreeWX-Wi 1.01,2013-03-11 13:43:00,
2013-03-11 06:48:00,39.7,39.2,30.44,North,-999,0.0,0.0,98,0.00,,,-99.99,FreeWX-Wi 1.01,2013-03-11 13:48:00,
2013-03-11 06:53:00,39.7,39.2,30.44,North,-999,0.0,0.0,98,0.00,,,-99.99,FreeWX-Wi 1.01,2013-03-11 13:53:00,
2013-03-11 06:58:00,39.7,39.2,30.39,North,-999,0.0,0.0,98,0.00,,,-99.99,FreeWX-Wi 1.01,2013-03-11 13:58:00,
2013-03-11 07:03:00,39.7,39.2,30.39,North,-999,0.0,0.0,98,0.00,,,-99.99,FreeWX-Wi 1.01,2013-03-11 14:03:00,
2013-03-11 07:08:00,39.7,39.2,30.39,North,-999,0.0,0.0,98,0.00,,,-99.99,FreeWX-Wi 1.01,2013-03-11 14:08:00,
2013-03-11 07:13:00,39.9,39.4,30.39,North,-999,0.0,0.0,98,0.00,,,-99.99,FreeWX-Wi 1.01,2013-03-11 14:13:00,
2013-03-11 07:18:00,40.1,39.6,30.39,North,-999,0.0,0.0,98,0.00,,,-99.99,FreeWX-Wi 1.01,2013-03-11 14:18:00,
2013-03-11 07:23:00,40.1,39.6,30.39,North,-999,0.0,0.0,98,0.00,,,-99.99,FreeWX-Wi 1.01,2013-03-11 14:23:00,
2013-03-11 07:28:00,40.1,39.6,30.39,North,-999,0.0,0.0,98,0.00,,,-99.99,FreeWX-Wi 1.01,2013-03-11 14:28:00,
2013-03-11 07:33:00,40.1,39.6,30.39,North,-999,0.0,0.0,98,0.00,,,-99.99,FreeWX-Wi 1.01,2013-03-11 14:33:00,
2013-03-11 07:38:00,40.1,39.6,30.39,North,-999,0.0,0.0,98,0.00,,,-99.99,FreeWX-Wi 1.01,2013-03-11 14:38:00,
2013-03-11 07:43:00,40.1,39.6,30.36,North,-999,0.0,0.0,98,0.00,,,-99.99,FreeWX-Wi 1.01,2013-03-11 14:43:00,
2013-03-11 07:48:00,39.9,39.4,30.36,North,-999,0.0,0.0,98,0.00,,,-99.99,FreeWX-Wi 1.01,2013-03-11 14:48:00,
2013-03-11 07:53:00,39.9,39.4,30.36,North,-999,0.0,0.0,98,0.00,,,-99.99,FreeWX-Wi 1.01,2013-03-11 14:53:00,
2013-03-11 07:58:00,39.9,39.4,30.36,North,-999,0.0,0.0,98,0.00,,,-99.99,FreeWX-Wi 1.01,2013-03-11 14:58:00,
2013-03-11 08:03:00,40.1,39.6,30.36,North,-999,0.0,0.0,98,0.00,,,-99.99,FreeWX-Wi 1.01,2013-03-11 15:03:00,
2013-03-11 08:08:00,40.3,39.7,30.36,North,-999,0.0,0.0,98,0.00,,,-99.99,FreeWX-Wi 1.01,2013-03-11 15:08:00,
2013-03-11 08:13:00,40.5,39.9,30.39,North,-999,0.0,0.0,98,0.00,,,-99.99,FreeWX-Wi 1.01,2013-03-11 15:13:00,
2013-03-11 08:18:00,40.5,39.9,30.39,North,-999,0.0,2.2,98,0.00,,,-99.99,FreeWX-Wi 1.01,2013-03-11 15:18:00,
2013-03-11 08:23:00,40.3,39.7,30.39,North,-999,0.0,0.0,98,0.00,,,-99.99,FreeWX-Wi 1.01,2013-03-11 15:23:00,
2013-03-11 08:28:00,40.3,39.7,30.36,North,-999,0.0,0.0,98,0.00,,,-99.99,FreeWX-Wi 1.01,2013-03-11 15:28:00,
2013-03-11 08:33:00,40.5,39.9,30.36,North,-999,0.0,0.0,98,0.00,,,-99.99,FreeWX-Wi 1.01,2013-03-11 15:33:00,
2013-03-11 08:38:00,40.6,40.1,30.36,North,-999,0.0,2.7,98,0.00,,,-99.99,FreeWX-Wi 1.01,2013-03-11 15:38:00,
2013-03-11 08:43:00,41.0,40.5,30.36,North,-999,0.0,0.0,98,0.00,,,-99.99,FreeWX-Wi 1.01,2013-03-11 15:43:00,
2013-03-11 08:48:00,41.5,41.0,30.36,North,-999,0.0,0.0,98,0.00,,,-99.99,FreeWX-Wi 1.01,2013-03-11 15:48:00,
2013-03-11 08:58:00,41.7,41.2,30.36,North,-999,0.0,2.2,98,0.00,,,-99.99,FreeWX-Wi 1.01,2013-03-11 15:58:00,
2013-03-11 09:03:00,41.9,41.4,30.36,North,-999,0.0,2.2,98,0.00,,,-99.99,FreeWX-Wi 1.01,2013-03-11 16:03:00,
2013-03-11 09:08:00,42.3,41.7,30.36,North,-999,0.0,2.2,98,0.00,,,-99.99,FreeWX-Wi 1.01,2013-03-11 16:08:00,
2013-03-11 09:13:00,42.6,42.1,30.36,North,-999,0.0,0.0,98,0.00,,,-99.99,FreeWX-Wi 1.01,2013-03-11 16:13:00,
2013-03-11 09:18:00,43.0,42.4,30.36,North,-999,0.0,0.0,98,0.00,,,-99.99,FreeWX-Wi 1.01,2013-03-11 16:18:00,
2013-03-11 09:23:00,43.3,42.8,30.36,North,-999,0.0,3.6,98,0.00,,,-99.99,FreeWX-Wi 1.01,2013-03-11 16:23:00,
2013-03-11 09:28:00,43.3,42.8,30.36,North,-999,0.0,3.1,98,0.00,,,-99.99,FreeWX-Wi 1.01,2013-03-11 16:28:00,
2013-03-11 09:33:00,43.7,43.2,30.36,North,-999,0.0,2.7,98,0.00,,,-99.99,FreeWX-Wi 1.01,2013-03-11 16:33:00,
2013-03-11 09:38:00,44.4,43.9,30.36,North,-999,0.0,2.2,98,0.00,,,-99.99,FreeWX-Wi 1.01,2013-03-11 16:38:00,
2013-03-11 09:43:00,44.4,43.9,30.36,North,-999,0.0,2.7,98,0.00,,,-99.99,FreeWX-Wi 1.01,2013-03-11 16:43:00,
2013-03-11 09:48:00,44.4,43.9,30.36,North,-999,0.0,3.1,98,0.00,,,-99.99,FreeWX-Wi 1.01,2013-03-11 16:48:00,
2013-03-11 09:53:00,44.6,44.1,30.36,North,-999,0.0,2.2,98,0.00,,,-99.99,FreeWX-Wi 1.01,2013-03-11 16:53:00,
2013-03-11 09:58:00,44.2,43.7,30.36,North,-999,0.0,4.0,98,0.00,,,-99.99,FreeWX-Wi 1.01,2013-03-11 16:58:00,
2013-03-11 10:03:00,44.2,43.7,30.36,North,-999,0.0,2.7,98,0.00,,,-99.99,FreeWX-Wi 1.01,2013-03-11 17:03:00,
2013-03-11 10:08:00,44.2,43.7,30.36,North,-999,0.0,3.1,98,0.00,,,-99.99,FreeWX-Wi 1.01,2013-03-11 17:08:00,
2013-03-11 10:13:00,44.4,43.9,30.36,North,-999,0.0,2.7,98,0.00,,,-99.99,FreeWX-Wi 1.01,2013-03-11 17:13:00,
2013-03-11 10:18:00,44.6,44.1,30.36,North,-999,0.0,2.7,98,0.00,,,-99.99,FreeWX-Wi 1.01,2013-03-11 17:18:00,
2013-03-11 10:23:00,44.8,44.2,30.36,ESE,113,1.0,4.0,98,0.00,,,-99.99,FreeWX-Wi 1.01,2013-03-11 17:23:00,
2013-03-11 10:28:00,45.1,44.6,30.36,North,-999,0.0,3.6,98,0.00,,,-99.99,FreeWX-Wi 1.01,2013-03-11 17:28:00,
2013-03-11 10:33:00,45.9,45.3,30.36,ESE,107,1.0,3.6,98,0.00,,,-99.99,FreeWX-Wi 1.01,2013-03-11 17:33:00,
2013-03-11 10:38:00,47.5,46.9,30.36,ESE,113,1.0,3.6,98,0.00,,,-99.99,FreeWX-Wi 1.01,2013-03-11 17:38:00,
2013-03-11 10:43:00,48.4,46.9,30.36,ESE,117,1.0,4.9,95,0.00,,,-99.99,FreeWX-Wi 1.01,2013-03-11 17:43:00,
2013-03-11 10:48:00,48.2,44.8,30.36,ESE,111,1.0,4.9,88,0.00,,,-99.99,FreeWX-Wi 1.01,2013-03-11 17:48:00,
2013-03-11 10:53:00,48.0,42.8,30.36,ESE,108,2.0,5.4,82,0.00,,,-99.99,FreeWX-Wi 1.01,2013-03-11 17:53:00,
2013-03-11 10:58:00,48.0,41.2,30.36,East,100,2.0,4.9,77,0.00,,,-99.99,FreeWX-Wi 1.01,2013-03-11 17:58:00,
2013-03-11 11:03:00,48.7,41.2,30.36,East,95,2.0,3.6,75,0.00,,,-99.99,FreeWX-Wi 1.01,2013-03-11 18:03:00,
2013-03-11 11:08:00,49.6,41.7,30.36,East,91,2.0,4.0,74,0.00,,,-99.99,FreeWX-Wi 1.01,2013-03-11 18:08:00,
2013-03-11 11:13:00,50.2,41.9,30.36,East,95,2.0,3.6,73,0.00,,,-99.99,FreeWX-Wi 1.01,2013-03-11 18:13:00,
2013-03-11 11:18:00,50.9,41.2,30.36,ESE,103,2.0,3.1,69,0.00,,,-99.99,FreeWX-Wi 1.01,2013-03-11 18:18:00,
2013-03-11 11:23:00,50.7,39.7,30.36,ESE,111,1.0,3.1,66,0.00,,,-99.99,FreeWX-Wi 1.01,2013-03-11 18:23:00,
2013-03-11 11:29:00,50.4,39.4,30.36,ESE,118,1.0,3.6,66,0.00,,,-99.99,FreeWX-Wi 1.01,2013-03-11 18:29:00,
2013-03-11 11:34:00,49.8,38.8,30.36,ESE,112,1.0,4.9,66,0.00,,,-99.99,FreeWX-Wi 1.01,2013-03-11 18:34:00,
2013-03-11 11:39:00,49.6,39.6,30.36,East,100,1.0,2.7,68,0.00,,,-99.99,FreeWX-Wi 1.01,2013-03-11 18:39:00,
2013-03-11 11:44:00,49.5,39.7,30.36,ESE,110,1.0,3.1,69,0.00,,,-99.99,FreeWX-Wi 1.01,2013-03-11 18:44:00,
2013-03-11 11:49:00,49.3,39.6,30.36,ESE,114,1.0,2.2,69,0.00,,,-99.99,FreeWX-Wi 1.01,2013-03-11 18:49:00,
2013-03-11 11:54:00,49.3,39.9,30.36,North,-999,0.0,0.0,70,0.00,,,-99.99,FreeWX-Wi 1.01,2013-03-11 18:54:00,
2013-03-11 11:59:00,49.8,40.8,30.36,North,-999,0.0,3.1,71,0.00,,,-99.99,FreeWX-Wi 1.01,2013-03-11 18:59:00,
2013-03-11 12:04:00,50.0,40.6,30.36,North,-999,0.0,2.7,70,0.00,,,-99.99,FreeWX-Wi 1.01,2013-03-11 19:04:00,
2013-03-11 12:09:00,50.0,40.3,30.36,North,-999,0.0,2.7,69,0.00,,,-99.99,FreeWX-Wi 1.01,2013-03-11 19:09:00,
2013-03-11 12:14:00,50.2,40.1,30.36,North,-999,0.0,3.1,68,0.00,,,-99.99,FreeWX-Wi 1.01,2013-03-11 19:14:00,
2013-03-11 12:19:00,49.8,39.4,30.36,North,-999,0.0,2.7,67,0.00,,,-99.99,FreeWX-Wi 1.01,2013-03-11 19:19:00,
2013-03-11 12:24:00,49.5,39.0,30.36,North,-999,0.0,4.0,67,0.00,,,-99.99,FreeWX-Wi 1.01,2013-03-11 19:24:00,
2013-03-11 12:29:00,49.3,38.8,30.36,North,-999,0.0,2.7,67,0.00,,,-99.99,FreeWX-Wi 1.01,2013-03-11 19:29:00,
2013-03-11 12:34:00,49.3,39.2,30.36,North,-999,0.0,2.2,68,0.00,,,-99.99,FreeWX-Wi 1.01,2013-03-11 19:34:00,
2013-03-11 12:39:00,49.6,39.9,30.36,North,-999,0.0,0.0,69,0.00,,,-99.99,FreeWX-Wi 1.01,2013-03-11 19:39:00,
2013-03-11 12:44:00,50.0,40.3,30.36,North,-999,0.0,2.2,69,0.00,,,-99.99,FreeWX-Wi 1.01,2013-03-11 19:44:00,
2013-03-11 12:49:00,50.4,40.6,30.36,North,-999,0.0,0.0,69,0.00,,,-99.99,FreeWX-Wi 1.01,2013-03-11 19:49:00,
2013-03-11 12:54:00,50.7,40.1,30.36,North,-999,0.0,0.0,67,0.00,,,-99.99,FreeWX-Wi 1.01,2013-03-11 19:54:00,
2013-03-11 12:59:00,50.9,40.3,30.36,North,-999,0.0,2.7,67,0.00,,,-99.99,FreeWX-Wi 1.01,2013-03-11 19:59:00,
2013-03-11 13:04:00,51.3,40.6,30.36,North,-999,0.0,0.0,67,0.00,,,-99.99,FreeWX-Wi 1.01,2013-03-11 20:04:00,
2013-03-11 13:09:00,51.6,41.0,30.36,North,-999,0.0,2.2,67,0.00,,,-99.99,FreeWX-Wi 1.01,2013-03-11 20:09:00,
2013-03-11 13:14:00,51.8,40.5,30.36,North,-999,0.0,2.7,65,0.00,,,-99.99,FreeWX-Wi 1.01,2013-03-11 20:14:00,
2013-03-11 13:19:00,51.3,39.6,30.36,North,-999,0.0,3.1,64,0.00,,,-99.99,FreeWX-Wi 1.01,2013-03-11 20:19:00,
2013-03-11 13:24:00,51.3,40.3,30.36,North,-999,0.0,2.7,66,0.00,,,-99.99,FreeWX-Wi 1.01,2013-03-11 20:24:00,
2013-03-11 13:29:00,52.0,41.0,30.36,North,-999,0.0,3.6,66,0.00,,,-99.99,FreeWX-Wi 1.01,2013-03-11 20:29:00,
2013-03-11 13:34:00,52.7,40.8,30.36,North,-999,0.0,3.1,64,0.00,,,-99.99,FreeWX-Wi 1.01,2013-03-11 20:34:00,
2013-03-11 13:39:00,53.2,40.6,30.36,North,-999,0.0,2.7,62,0.00,,,-99.99,FreeWX-Wi 1.01,2013-03-11 20:39:00,
2013-03-11 13:44:00,53.1,39.2,30.39,North,-999,0.0,3.6,59,0.00,,,-99.99,FreeWX-Wi 1.01,2013-03-11 20:44:00,
2013-03-11 13:49:00,52.9,39.0,30.39,North,-999,0.0,2.2,59,0.00,,,-99.99,FreeWX-Wi 1.01,2013-03-11 20:49:00,
2013-03-11 13:54:00,52.7,38.8,30.39,North,-999,0.0,2.2,59,0.00,,,-99.99,FreeWX-Wi 1.01,2013-03-11 20:54:00,
2013-03-11 13:59:00,52.5,38.1,30.36,North,-999,0.0,3.1,58,0.00,,,-99.99,FreeWX-Wi 1.01,2013-03-11 20:59:00,
2013-03-11 14:04:00,52.3,38.8,30.36,SE,131,1.0,5.4,60,0.00,,,-99.99,FreeWX-Wi 1.01,2013-03-11 21:04:00,
2013-03-11 14:09:00,52.2,38.7,30.36,SE,136,1.0,3.6,60,0.00,,,-99.99,FreeWX-Wi 1.01,2013-03-11 21:09:00,
2013-03-11 14:14:00,52.2,38.7,30.36,SSE,149,1.0,2.7,60,0.00,,,-99.99,FreeWX-Wi 1.01,2013-03-11 21:14:00,
2013-03-11 14:19:00,52.2,39.2,30.36,North,-999,0.0,2.2,61,0.00,,,-99.99,FreeWX-Wi 1.01,2013-03-11 21:19:00,
2013-03-11 14:24:00,52.0,39.0,30.36,North,-999,0.0,2.2,61,0.00,,,-99.99,FreeWX-Wi 1.01,2013-03-11 21:24:00,
2013-03-11 14:29:00,52.0,39.4,30.36,North,-999,0.0,2.2,62,0.00,,,-99.99,FreeWX-Wi 1.01,2013-03-11 21:29:00,
2013-03-11 14:34:00,52.2,39.6,30.36,North,-999,0.0,2.7,62,0.00,,,-99.99,FreeWX-Wi 1.01,2013-03-11 21:34:00,
2013-03-11 14:39:00,52.3,39.7,30.36,North,-999,0.0,0.0,62,0.00,,,-99.99,FreeWX-Wi 1.01,2013-03-11 21:39:00,
2013-03-11 14:44:00,53.2,40.1,30.36,North,-999,0.0,2.2,61,0.00,,,-99.99,FreeWX-Wi 1.01,2013-03-11 21:44:00,
2013-03-11 14:49:00,54.3,40.3,30.36,North,-999,0.0,2.2,59,0.00,,,-99.99,FreeWX-Wi 1.01,2013-03-11 21:49:00,
2013-03-11 14:54:00,54.7,40.3,30.36,North,-999,0.0,0.0,58,0.00,,,-99.99,FreeWX-Wi 1.01,2013-03-11 21:54:00,
2013-03-11 14:59:00,54.9,39.4,30.36,North,-999,0.0,3.1,56,0.00,,,-99.99,FreeWX-Wi 1.01,2013-03-11 21:59:00,
2013-03-11 15:04:00,54.5,39.2,30.36,North,-999,0.0,3.6,56,0.00,,,-99.99,FreeWX-Wi 1.01,2013-03-11 22:04:00,
2013-03-11 15:09:00,54.7,39.7,30.36,North,-999,0.0,3.1,57,0.00,,,-99.99,FreeWX-Wi 1.01,2013-03-11 22:09:00,
2013-03-11 15:14:00,54.3,39.0,30.36,North,-999,0.0,3.6,56,0.00,,,-99.99,FreeWX-Wi 1.01,2013-03-11 22:14:00,
2013-03-11 15:19:00,54.1,39.2,30.36,North,-999,0.0,2.2,57,0.00,,,-99.99,FreeWX-Wi 1.01,2013-03-11 22:19:00,
2013-03-11 15:24:00,54.3,39.4,30.36,North,-999,0.0,2.7,57,0.00,,,-99.99,FreeWX-Wi 1.01,2013-03-11 22:24:00,
2013-03-11 15:29:00,54.9,39.9,30.36,North,-999,0.0,3.1,57,0.00,,,-99.99,FreeWX-Wi 1.01,2013-03-11 22:29:00,
2013-03-11 15:34:00,54.3,38.5,30.36,North,-999,0.0,3.1,55,0.00,,,-99.99,FreeWX-Wi 1.01,2013-03-11 22:34:00,
2013-03-11 15:39:00,54.3,39.4,30.36,North,-999,0.0,0.0,57,0.00,,,-99.99,FreeWX-Wi 1.01,2013-03-11 22:39:00,
2013-03-11 15:44:00,54.3,39.0,30.33,North,-999,0.0,3.1,56,0.00,,,-99.99,FreeWX-Wi 1.01,2013-03-11 22:44:00,
2013-03-11 15:49:00,54.1,38.8,30.33,North,-999,0.0,3.1,56,0.00,,,-99.99,FreeWX-Wi 1.01,2013-03-11 22:49:00,
2013-03-11 15:54:00,53.2,38.5,30.33,North,-999,0.0,3.1,57,0.00,,,-99.99,FreeWX-Wi 1.01,2013-03-11 22:54:00,
2013-03-11 15:59:00,53.1,39.2,30.30,North,-999,0.0,3.1,59,0.00,,,-99.99,FreeWX-Wi 1.01,2013-03-11 22:59:00,
2013-03-11 16:04:00,52.7,38.8,30.30,North,-999,0.0,2.7,59,0.00,,,-99.99,FreeWX-Wi 1.01,2013-03-11 23:04:00,
2013-03-11 16:09:00,52.3,38.5,30.30,North,-999,0.0,2.2,59,0.00,,,-99.99,FreeWX-Wi 1.01,2013-03-11 23:09:00,
2013-03-11 16:14:00,52.0,38.5,30.30,North,-999,0.0,2.2,60,0.00,,,-99.99,FreeWX-Wi 1.01,2013-03-11 23:14:00,
2013-03-11 16:19:00,51.6,39.0,30.30,North,-999,0.0,0.0,62,0.00,,,-99.99,FreeWX-Wi 1.01,2013-03-11 23:19:00,
2013-03-11 16:24:00,51.4,39.2,30.30,North,-999,0.0,0.0,63,0.00,,,-99.99,FreeWX-Wi 1.01,2013-03-11 23:24:00,
2013-03-11 16:29:00,51.4,39.7,30.36,North,-999,0.0,0.0,64,0.00,,,-99.99,FreeWX-Wi 1.01,2013-03-11 23:29:00,
2013-03-11 16:34:00,51.3,39.6,30.36,North,-999,0.0,3.6,64,0.00,,,-99.99,FreeWX-Wi 1.01,2013-03-11 23:34:00,
2013-03-11 16:39:00,51.3,39.6,30.36,North,-999,0.0,2.7,64,0.00,,,-99.99,FreeWX-Wi 1.01,2013-03-11 23:39:00,
2013-03-11 16:44:00,51.1,39.4,30.33,North,-999,0.0,2.2,64,0.00,,,-99.99,FreeWX-Wi 1.01,2013-03-11 23:44:00,
2013-03-11 16:49:00,51.1,39.7,30.33,North,-999,0.0,0.0,65,0.00,,,-99.99,FreeWX-Wi 1.01,2013-03-11 23:49:00,
2013-03-11 16:54:00,51.3,39.9,30.33,North,-999,0.0,0.0,65,0.00,,,-99.99,FreeWX-Wi 1.01,2013-03-11 23:54:00,
2013-03-11 16:59:00,51.3,39.9,30.33,North,-999,0.0,0.0,65,0.00,,,-99.99,FreeWX-Wi 1.01,2013-03-11 23:59:00,
2013-03-11 17:04:00,51.4,40.1,30.33,North,-999,0.0,0.0,65,0.00,,,-99.99,FreeWX-Wi 1.01,2013-03-12 00:04:00,
2013-03-11 17:09:00,51.4,40.1,30.33,North,-999,0.0,0.0,65,0.00,,,-99.99,FreeWX-Wi 1.01,2013-03-12 00:09:00,
2013-03-11 17:14:00,51.4,40.5,30.30,North,-999,0.0,0.0,66,0.00,,,-99.99,FreeWX-Wi 1.01,2013-03-12 00:14:00,
2013-03-11 17:19:00,51.3,39.9,30.30,North,-999,0.0,0.0,65,0.00,,,-99.99,FreeWX-Wi 1.01,2013-03-12 00:19:00,
2013-03-11 17:24:00,51.3,40.3,30.30,North,-999,0.0,2.2,66,0.00,,,-99.99,FreeWX-Wi 1.01,2013-03-12 00:24:00,
2013-03-11 17:29:00,51.3,40.3,30.27,North,-999,0.0,2.2,66,0.00,,,-99.99,FreeWX-Wi 1.01,2013-03-12 00:29:00,
2013-03-11 17:34:00,51.1,40.1,30.27,North,-999,0.0,0.0,66,0.00,,,-99.99,FreeWX-Wi 1.01,2013-03-12 00:34:00,
2013-03-11 17:39:00,51.1,40.5,30.27,North,-999,0.0,0.0,67,0.00,,,-99.99,FreeWX-Wi 1.01,2013-03-12 00:39:00,
2013-03-11 17:44:00,50.9,40.6,30.24,North,-999,0.0,0.0,68,0.00,,,-99.99,FreeWX-Wi 1.01,2013-03-12 00:44:00,
2013-03-11 17:49:00,50.5,40.5,30.24,North,-999,0.0,0.0,68,0.00,,,-99.99,FreeWX-Wi 1.01,2013-03-12 00:49:00,
2013-03-11 17:54:00,50.4,40.6,30.24,North,-999,0.0,0.0,69,0.00,,,-99.99,FreeWX-Wi 1.01,2013-03-12 00:54:00,
2013-03-11 17:59:00,50.2,41.2,30.24,North,-999,0.0,0.0,71,0.00,,,-99.99,FreeWX-Wi 1.01,2013-03-12 00:59:00,
2013-03-11 18:04:00,49.8,41.5,30.24,North,-999,0.0,0.0,73,0.00,,,-99.99,FreeWX-Wi 1.01,2013-03-12 01:04:00,
2013-03-11 18:09:00,49.6,41.7,30.24,North,-999,0.0,0.0,74,0.00,,,-99.99,FreeWX-Wi 1.01,2013-03-12 01:09:00,
2013-03-11 18:14:00,49.3,41.7,30.21,North,-999,0.0,0.0,75,0.00,,,-99.99,FreeWX-Wi 1.01,2013-03-12 01:14:00,
2013-03-11 18:19:00,49.1,41.9,30.21,North,-999,0.0,0.0,76,0.00,,,-99.99,FreeWX-Wi 1.01,2013-03-12 01:19:00,
2013-03-11 18:24:00,48.9,42.1,30.21,North,-999,0.0,0.0,77,0.00,,,-99.99,FreeWX-Wi 1.01,2013-03-12 01:24:00,
2013-03-11 18:29:00,48.7,42.3,30.21,North,-999,0.0,0.0,78,0.00,,,-99.99,FreeWX-Wi 1.01,2013-03-12 01:29:00,
2013-03-11 18:34:00,48.7,42.3,30.21,North,-999,0.0,0.0,78,0.00,,,-99.99,FreeWX-Wi 1.01,2013-03-12 01:34:00,
2013-03-11 18:39:00,48.6,42.6,30.21,North,-999,0.0,0.0,80,0.00,,,-99.99,FreeWX-Wi 1.01,2013-03-12 01:39:00,
2013-03-11 18:44:00,48.4,43.2,30.18,North,-999,0.0,0.0,82,0.00,,,-99.99,FreeWX-Wi 1.01,2013-03-12 01:44:00,
2013-03-11 18:49:00,48.4,43.2,30.18,North,-999,0.0,0.0,82,0.00,,,-99.99,FreeWX-Wi 1.01,2013-03-12 01:49:00,
2013-03-11 18:54:00,48.2,43.3,30.18,North,-999,0.0,0.0,83,0.00,,,-99.99,FreeWX-Wi 1.01,2013-03-12 01:54:00,
2013-03-11 19:09:00,47.7,43.3,30.21,North,-999,0.0,0.0,85,0.00,,,-99.99,FreeWX-Wi 1.01,2013-03-12 02:09:00,
2013-03-11 19:14:00,47.5,43.5,30.21,North,-999,0.0,0.0,86,0.00,,,-99.99,FreeWX-Wi 1.01,2013-03-12 02:14:00,
2013-03-11 19:19:00,47.3,43.3,30.21,North,-999,0.0,0.0,86,0.00,,,-99.99,FreeWX-Wi 1.01,2013-03-12 02:19:00,
2013-03-11 19:24:00,47.1,43.2,30.18,North,-999,0.0,0.0,86,0.00,,,-99.99,FreeWX-Wi 1.01,2013-03-12 02:24:00,
2013-03-11 19:29:00,46.9,43.3,30.18,North,-999,0.0,0.0,87,0.00,,,-99.99,FreeWX-Wi 1.01,2013-03-12 02:29:00,
2013-03-11 19:34:00,46.9,43.5,30.18,North,-999,0.0,0.0,88,0.00,,,-99.99,FreeWX-Wi 1.01,2013-03-12 02:34:00,
2013-03-11 19:39:00,46.8,43.3,30.18,North,-999,0.0,0.0,88,0.00,,,-99.99,FreeWX-Wi 1.01,2013-03-12 02:39:00,
2013-03-11 19:44:00,46.6,43.5,30.18,North,-999,0.0,2.2,89,0.00,,,-99.99,FreeWX-Wi 1.01,2013-03-12 02:44:00,
2013-03-11 19:49:00,46.6,43.5,30.18,North,-999,0.0,0.0,89,0.00,,,-99.99,FreeWX-Wi 1.01,2013-03-12 02:49:00,
2013-03-11 19:54:00,46.6,43.9,30.18,North,-999,0.0,0.0,90,0.00,,,-99.99,FreeWX-Wi 1.01,2013-03-12 02:54:00,
2013-03-11 19:59:00,46.6,43.9,30.21,North,-999,0.0,0.0,90,0.00,,,-99.99,FreeWX-Wi 1.01,2013-03-12 02:59:00,
2013-03-11 20:04:00,46.6,44.1,30.21,North,-999,0.0,0.0,91,0.00,,,-99.99,FreeWX-Wi 1.01,2013-03-12 03:04:00,
2013-03-11 20:09:00,46.4,43.9,30.21,North,-999,0.0,0.0,91,0.00,,,-99.99,FreeWX-Wi 1.01,2013-03-12 03:09:00,
2013-03-11 20:14:00,46.4,43.9,30.12,North,-999,0.0,0.0,91,0.00,,,-99.99,FreeWX-Wi 1.01,2013-03-12 03:14:00,
2013-03-11 20:19:00,46.4,44.2,30.12,North,-999,0.0,0.0,92,0.00,,,-99.99,FreeWX-Wi 1.01,2013-03-12 03:19:00,
2013-03-11 20:24:00,46.2,44.1,30.12,North,-999,0.0,0.0,92,0.00,,,-99.99,FreeWX-Wi 1.01,2013-03-12 03:24:00,
2013-03-11 20:29:00,46.2,44.1,30.12,North,-999,0.0,0.0,92,0.00,,,-99.99,FreeWX-Wi 1.01,2013-03-12 03:29:00,
2013-03-11 20:34:00,46.0,44.1,30.12,North,-999,0.0,0.0,93,0.00,,,-99.99,FreeWX-Wi 1.01,2013-03-12 03:34:00,
2013-03-11 20:39:00,46.0,44.1,30.12,North,-999,0.0,0.0,93,0.00,,,-99.99,FreeWX-Wi 1.01,2013-03-12 03:39:00,
2013-03-11 20:44:00,46.0,44.1,30.09,North,-999,0.0,0.0,93,0.00,,,-99.99,FreeWX-Wi 1.01,2013-03-12 03:44:00,
2013-03-11 20:49:00,45.9,43.9,30.09,North,-999,0.0,0.0,93,0.00,,,-99.99,FreeWX-Wi 1.01,2013-03-12 03:49:00,
2013-03-11 20:54:00,45.9,44.2,30.09,North,-999,0.0,2.7,94,0.00,,,-99.99,FreeWX-Wi 1.01,2013-03-12 03:54:00,
2013-03-11 20:59:00,45.9,44.2,30.09,North,-999,0.0,0.0,94,0.00,,,-99.99,FreeWX-Wi 1.01,2013-03-12 03:59:00,
2013-03-11 21:04:00,46.0,44.4,30.09,North,-999,0.0,0.0,94,0.00,,,-99.99,FreeWX-Wi 1.01,2013-03-12 04:04:00,
2013-03-11 21:09:00,46.0,44.6,30.09,North,-999,0.0,2.2,95,0.00,,,-99.99,FreeWX-Wi 1.01,2013-03-12 04:09:00,
2013-03-11 21:14:00,46.2,44.8,30.09,North,-999,0.0,0.0,95,0.00,,,-99.99,FreeWX-Wi 1.01,2013-03-12 04:14:00,
2013-03-11 21:19:00,46.2,44.8,30.09,North,-999,0.0,0.0,95,0.00,,,-99.99,FreeWX-Wi 1.01,2013-03-12 04:19:00,
2013-03-11 21:24:00,46.2,44.8,30.09,North,-999,0.0,0.0,95,0.00,,,-99.99,FreeWX-Wi 1.01,2013-03-12 04:24:00,
2013-03-11 21:29:00,46.2,44.8,30.09,North,-999,0.0,0.0,95,0.00,,,-99.99,FreeWX-Wi 1.01,2013-03-12 04:29:00,
2013-03-11 21:34:00,46.2,44.8,30.09,North,-999,0.0,0.0,95,0.00,,,-99.99,FreeWX-Wi 1.01,2013-03-12 04:34:00,
2013-03-11 21:39:00,46.2,45.1,30.09,North,-999,0.0,0.0,96,0.00,,,-99.99,FreeWX-Wi 1.01,2013-03-12 04:39:00,
2013-03-11 21:44:00,46.2,45.1,30.09,North,-999,0.0,0.0,96,0.00,,,-99.99,FreeWX-Wi 1.01,2013-03-12 04:44:00,
2013-03-11 21:49:00,46.2,45.1,30.09,North,-999,0.0,0.0,96,0.00,,,-99.99,FreeWX-Wi 1.01,2013-03-12 04:49:00,
2013-03-11 21:54:00,46.2,45.1,30.09,North,-999,0.0,0.0,96,0.00,,,-99.99,FreeWX-Wi 1.01,2013-03-12 04:54:00,
2013-03-11 21:59:00,46.2,45.1,30.09,North,-999,0.0,0.0,96,0.00,,,-99.99,FreeWX-Wi 1.01,2013-03-12 04:59:00,
2013-03-11 22:04:00,46.2,45.1,30.09,North,-999,0.0,0.0,96,0.00,,,-99.99,FreeWX-Wi 1.01,2013-03-12 05:04:00,
2013-03-11 22:09:00,46.2,45.1,30.09,North,-999,0.0,0.0,96,0.00,,,-99.99,FreeWX-Wi 1.01,2013-03-12 05:09:00,
2013-03-11 22:14:00,46.2,45.1,30.09,North,-999,0.0,0.0,96,0.00,,,-99.99,FreeWX-Wi 1.01,2013-03-12 05:14:00,
2013-03-11 22:19:00,46.2,45.5,30.09,North,-999,0.0,0.0,97,0.00,,,-99.99,FreeWX-Wi 1.01,2013-03-12 05:19:00,
2013-03-11 22:24:00,46.2,45.5,30.09,North,-999,0.0,0.0,97,0.00,,,-99.99,FreeWX-Wi 1.01,2013-03-12 05:24:00,
2013-03-11 22:29:00,46.2,45.5,30.09,North,-999,0.0,0.0,97,0.00,,,-99.99,FreeWX-Wi 1.01,2013-03-12 05:29:00,
2013-03-11 22:34:00,46.2,45.5,30.09,North,-999,0.0,2.2,97,0.00,,,-99.99,FreeWX-Wi 1.01,2013-03-12 05:34:00,
2013-03-11 22:39:00,46.2,45.5,30.09,North,-999,0.0,2.7,97,0.00,,,-99.99,FreeWX-Wi 1.01,2013-03-12 05:39:00,
2013-03-11 22:44:00,46.2,45.5,30.09,North,-999,0.0,0.0,97,0.00,,,-99.99,FreeWX-Wi 1.01,2013-03-12 05:44:00,
2013-03-11 22:49:00,46.0,45.3,30.09,North,-999,0.0,3.1,97,0.00,,,-99.99,FreeWX-Wi 1.01,2013-03-12 05:49:00,
2013-03-11 22:54:00,46.0,45.3,30.09,North,-999,0.0,2.2,97,0.00,,,-99.99,FreeWX-Wi 1.01,2013-03-12 05:54:00,
2013-03-11 22:59:00,46.0,45.3,30.09,North,-999,0.0,2.7,97,0.00,,,-99.99,FreeWX-Wi 1.01,2013-03-12 05:59:00,
2013-03-11 23:04:00,46.2,45.5,30.09,North,-999,0.0,2.7,97,0.00,,,-99.99,FreeWX-Wi 1.01,2013-03-12 06:04:00,
2013-03-11 23:09:00,46.2,45.5,30.09,North,-999,0.0,0.0,97,0.00,,,-99.99,FreeWX-Wi 1.01,2013-03-12 06:09:00,
2013-03-11 23:15:00,46.2,45.7,30.06,North,-999,0.0,0.0,98,0.00,,,-99.99,FreeWX-Wi 1.01,2013-03-12 06:15:00,
2013-03-11 23:20:00,46.2,45.7,30.06,North,-999,0.0,3.6,98,0.00,,,-99.99,FreeWX-Wi 1.01,2013-03-12 06:20:00,
2013-03-11 23:25:00,46.2,45.7,30.06,North,-999,0.0,2.2,98,0.00,,,-99.99,FreeWX-Wi 1.01,2013-03-12 06:25:00,
2013-03-11 23:30:00,46.4,45.9,30.06,North,-999,0.0,2.2,98,0.00,,,-99.99,FreeWX-Wi 1.01,2013-03-12 06:30:00,
2013-03-11 23:35:00,46.4,45.9,30.06,North,-999,0.0,4.0,98,0.00,,,-99.99,FreeWX-Wi 1.01,2013-03-12 06:35:00,
2013-03-11 23:40:00,46.6,46.0,30.06,North,-999,0.0,0.0,98,0.00,,,-99.99,FreeWX-Wi 1.01,2013-03-12 06:40:00,
2013-03-11 23:45:00,46.6,46.0,30.06,North,-999,0.0,2.7,98,0.00,,,-99.99,FreeWX-Wi 1.01,2013-03-12 06:45:00,
2013-03-11 23:50:00,46.6,46.0,30.06,North,-999,0.0,0.0,98,0.00,,,-99.99,FreeWX-Wi 1.01,2013-03-12 06:50:00,
2013-03-11 23:55:00,46.8,46.2,30.06,North,-999,0.0,0.0,98,0.00,,,-99.99,FreeWX-Wi 1.01,2013-03-12 06:55:00,